Main page
METAR-TAF:

METAR-TAF

Airports :

Mount Washington Regional Airport

Whitefield, New Hampshire, United States

latitude: 44-21-58N, longitude: 071-33-09W, elevation: 1073 ft

Current weather observation

The report was made 36 minutes ago, at 03:08 UTC
Calm wind
Temperature -0°F
Humidity 77%
Pressure 30.38 in. Hg
Visibility: 10 miles
Broken clouds at a height of 2500 ft

METAR: KHIE 080308Z AUTO 00000KT 10SM BKN025 M18/M21 A3038 RMK AO2 T11831206

Time: 22:44 (03:44 UTC)

Forecast

The report was made 2 hours and 5 minutes ago, at 01:39 UTC
Forecast valid from 08 at 02 UTC to 08 at 24 UTC
Wind 3 mph from variable directions
Visibility: 6 miles
Scattered clouds at a height of 4000 ft
Temporary
from 08 at 02 UTC to 08 at 04 UTC
Broken clouds at a height of 2500 ft
From 08 at 1700 UTC
Wind 5 mph from the South/Southwest
Visibility: 6 miles
Broken clouds at a height of 20000 ft

TAF: KHIE 080139Z 0802/0824 VRB03KT P6SM SCT040 TEMPO 0802/0804 BKN025 FM081700 20004KT P6SM BKN200

Weather observations and forecasts of more than 4000 airports (METAR and TAF reports).

The available stations are represented by yellow and red dots on the map.

Hover mouse over dot to see the name of the station.

Then click to see weather observations and forecasts.

To change the map : click on the green buttons with a black cross to zoom in, on the green button with a dash to zoom out, or on the green arrows for adjacent maps.


METAR-TAF: